createdAt,value
2022-08-25T07:41:38.021Z,23.80
2022-08-25T07:42:36.072Z,22.76
2022-08-25T07:43:34.293Z,22.26
2022-08-25T07:44:32.704Z,22.14
2022-08-25T07:45:32.190Z,22.01
2022-08-25T07:46:28.865Z,21.78
2022-08-25T07:47:25.540Z,21.88
2022-08-25T07:48:22.189Z,21.96
2022-08-25T07:49:23.232Z,21.90
2022-08-25T07:50:20.665Z,21.81
2022-08-25T07:51:17.545Z,21.89
2022-08-25T07:52:15.025Z,21.87
2022-08-25T07:53:13.358Z,22.00
2022-08-25T07:54:11.300Z,22.03
2022-08-25T07:55:11.150Z,22.15
2022-08-25T07:56:13.627Z,22.05
2022-08-25T07:57:10.248Z,22.16
2022-08-25T07:58:08.470Z,22.29
2022-08-25T07:59:05.308Z,22.39
2022-08-25T08:00:02.009Z,22.41
2022-08-25T08:01:00.702Z,22.56
2022-08-25T08:01:57.481Z,22.48
2022-08-25T08:02:54.257Z,22.60
2022-08-25T08:03:51.695Z,22.50
2022-08-25T08:04:50.114Z,22.72
2022-08-25T08:05:47.495Z,22.52
2022-08-25T08:06:45.979Z,22.45
2022-08-25T08:07:43.755Z,22.30
2022-08-25T08:08:45.622Z,22.34
2022-08-25T08:09:42.459Z,22.53
2022-08-25T08:11:03.198Z,22.56
2022-08-25T08:11:57.771Z,23.02
2022-08-25T08:12:54.582Z,23.04
2022-08-25T08:13:52.184Z,23.40
2022-08-25T08:14:49.405Z,22.87
2022-08-25T08:15:46.782Z,23.13
2022-08-25T08:16:43.678Z,23.12
2022-08-25T08:17:40.647Z,23.40
2022-08-25T08:18:37.416Z,23.04
2022-08-25T08:19:36.419Z,23.13
2022-08-25T08:20:43.175Z,23.25
2022-08-25T08:21:40.027Z,22.96
2022-08-25T08:22:38.219Z,22.91
2022-08-25T08:23:35.808Z,23.06
2022-08-25T08:24:44.755Z,23.27
2022-08-25T08:25:51.155Z,23.35
2022-08-25T08:26:58.696Z,23.57
2022-08-25T08:27:56.760Z,23.49
2022-08-25T08:28:53.584Z,23.37
2022-08-25T08:29:53.718Z,23.37
2022-08-25T08:30:53.121Z,23.38
2022-08-25T08:31:50.554Z,23.18
2022-08-25T08:33:08.706Z,23.15
2022-08-25T08:34:06.535Z,23.45
2022-08-25T08:35:05.791Z,23.40
2022-08-25T08:36:12.396Z,23.42
2022-08-25T08:37:10.403Z,23.12
2022-08-25T08:38:14.569Z,22.95
2022-08-25T08:39:11.777Z,23.09
2022-08-25T08:40:09.762Z,23.25
2022-08-25T08:42:07.298Z,23.35
2022-08-25T08:43:18.501Z,23.28
2022-08-25T08:44:18.971Z,23.55
2022-08-25T08:45:43.960Z,23.93
2022-08-25T08:47:03.020Z,24.25
2022-08-25T08:48:02.509Z,24.43
2022-08-25T08:49:05.742Z,24.39
2022-08-25T08:50:33.013Z,24.52
2022-08-25T08:51:40.105Z,24.25
2022-08-25T08:52:50.081Z,24.13
2022-08-25T08:54:15.419Z,24.45
2022-08-25T08:55:28.023Z,24.85
2022-08-25T08:56:31.100Z,24.91
2022-08-25T08:57:29.860Z,24.95
2022-08-25T08:58:37.800Z,24.84
2022-08-25T08:59:49.193Z,25.16
2022-08-25T09:01:03.775Z,24.93
2022-08-25T09:02:04.083Z,25.01
2022-08-25T09:03:33.238Z,25.35
2022-08-25T09:04:36.483Z,25.18
2022-08-25T09:05:46.835Z,24.17
2022-08-25T09:06:49.610Z,24.12
2022-08-25T09:07:56.170Z,24.13
2022-08-25T09:08:55.649Z,24.34
2022-08-25T09:09:56.603Z,24.44
2022-08-25T09:11:36.669Z,24.34
2022-08-25T09:13:11.349Z,25.34
2022-08-25T09:14:14.607Z,25.88
2022-08-25T09:16:01.713Z,26.43
2022-08-25T09:17:07.134Z,26.20
2022-08-25T09:18:16.439Z,25.74
2022-08-25T09:19:32.203Z,25.64
2022-08-25T09:20:40.828Z,25.03
2022-08-25T09:21:45.774Z,25.06
2022-08-25T09:22:43.942Z,25.74
2022-08-25T09:24:04.888Z,25.97
2022-08-25T09:25:16.350Z,26.01
2022-08-25T09:26:28.611Z,25.82
2022-08-25T09:27:40.463Z,26.13
2022-08-25T09:28:37.115Z,26.06
2022-08-25T09:30:11.899Z,26.48
2022-08-25T09:31:20.367Z,27.12
2022-08-25T09:32:24.146Z,26.98
2022-08-25T09:33:25.358Z,27.29
2022-08-25T09:34:28.592Z,27.36
2022-08-25T09:35:28.493Z,27.20
2022-08-25T09:36:25.718Z,26.75
2022-08-25T09:37:24.181Z,26.01
2022-08-25T09:38:21.985Z,25.88
2022-08-25T09:39:19.916Z,25.81
2022-08-25T09:40:16.622Z,26.20
2022-08-25T09:41:17.607Z,26.75
2022-08-25T09:42:23.927Z,27.13
2022-08-25T09:43:43.622Z,26.85
2022-08-25T09:44:43.887Z,27.17
2022-08-25T09:45:47.560Z,26.63
2022-08-25T09:47:14.826Z,25.46
2022-08-25T09:48:22.510Z,25.28
2022-08-25T09:49:19.403Z,26.22
2022-08-25T09:50:20.149Z,26.70
2022-08-25T09:51:16.780Z,26.64
2022-08-25T09:52:38.200Z,27.17
2022-08-25T09:53:48.161Z,27.18
2022-08-25T09:54:46.866Z,27.60
2022-08-25T09:55:47.443Z,27.63
2022-08-25T09:56:51.439Z,27.54
2022-08-25T09:57:52.983Z,27.54
2022-08-25T09:58:50.245Z,27.46
2022-08-25T09:59:57.702Z,27.34
2022-08-25T10:01:06.570Z,26.08
2022-08-25T10:02:24.132Z,26.17
2022-08-25T10:03:24.603Z,26.01
2022-08-25T10:04:48.356Z,26.59
2022-08-25T10:06:01.504Z,27.14
2022-08-25T10:07:00.606Z,26.37
2022-08-25T10:08:03.428Z,25.74
2022-08-25T10:09:06.754Z,25.59
2022-08-25T10:10:18.385Z,24.77
2022-08-25T10:11:34.312Z,25.46
2022-08-25T10:12:42.519Z,24.35
2022-08-25T10:13:41.868Z,24.87
2022-08-25T10:14:44.582Z,24.51
2022-08-25T10:15:41.507Z,24.95
2022-08-25T10:16:38.483Z,25.28
2022-08-25T10:17:35.510Z,24.95
2022-08-25T10:18:33.722Z,25.13
2022-08-25T10:19:30.617Z,25.45
2022-08-25T10:20:28.653Z,24.66
2022-08-25T10:21:32.651Z,24.70
2022-08-25T10:22:32.667Z,25.32
2022-08-25T10:23:30.649Z,25.48
2022-08-25T10:24:27.500Z,25.79
2022-08-25T10:25:33.021Z,24.74
2022-08-25T10:26:55.390Z,24.34
2022-08-25T10:28:16.012Z,24.33
2022-08-25T10:29:30.988Z,24.22
2022-08-25T10:30:38.201Z,24.30
2022-08-25T10:31:44.746Z,24.57
2022-08-25T10:32:59.602Z,25.02
2022-08-25T10:34:20.054Z,24.62
2022-08-25T10:35:27.718Z,24.10
2022-08-25T10:36:36.402Z,24.94
2022-08-25T10:37:57.919Z,25.34
2022-08-25T10:39:01.620Z,25.55
2022-08-25T10:40:36.512Z,25.83
2022-08-25T10:42:02.128Z,26.02
2022-08-25T10:43:08.573Z,26.02
2022-08-25T10:44:37.071Z,26.02
2022-08-25T10:46:02.323Z,26.13
2022-08-25T10:47:29.685Z,25.39
2022-08-25T10:49:00.550Z,25.36
2022-08-25T10:50:40.833Z,25.64
2022-08-25T10:52:01.419Z,26.23
2022-08-25T10:53:33.625Z,26.02
2022-08-25T10:54:43.031Z,26.00
2022-08-25T10:55:55.131Z,25.92
2022-08-25T10:57:00.938Z,25.93
2022-08-25T10:58:09.924Z,25.87
2022-08-25T10:59:13.010Z,25.66
2022-08-25T11:00:14.047Z,24.79
2022-08-25T11:01:43.668Z,25.18
2022-08-25T11:03:26.696Z,25.24
2022-08-25T11:04:30.682Z,25.66
2022-08-25T11:05:51.893Z,25.15
2022-08-25T11:06:55.457Z,25.54
2022-08-25T11:08:11.553Z,25.93
2022-08-25T11:09:13.137Z,26.44
2022-08-25T11:10:20.224Z,26.31
2022-08-25T11:11:25.854Z,25.46
2022-08-25T11:12:35.807Z,25.02
2022-08-25T11:13:45.919Z,25.72
2022-08-25T11:14:57.150Z,25.96
2022-08-25T11:16:16.570Z,25.85
2022-08-25T11:17:25.563Z,25.67
2022-08-25T11:18:25.109Z,26.65
2022-08-25T11:19:36.388Z,27.14
2022-08-25T11:21:01.335Z,26.83
2022-08-25T11:22:04.636Z,27.05
2022-08-25T11:23:24.365Z,26.63
2022-08-25T11:24:20.971Z,26.72
2022-08-25T11:25:20.024Z,26.27
2022-08-25T11:26:31.850Z,26.23
2022-08-25T11:27:50.669Z,26.73
2022-08-25T11:29:03.690Z,27.00
2022-08-25T11:30:10.622Z,26.78
2022-08-25T11:31:09.982Z,26.36
2022-08-25T11:32:07.075Z,25.98
2022-08-25T11:33:05.015Z,25.93
2022-08-25T11:34:10.815Z,25.83
2022-08-25T11:35:12.108Z,25.52
2022-08-25T11:36:15.300Z,25.22
2022-08-25T11:37:27.927Z,25.16
2022-08-25T11:38:39.834Z,25.37
2022-08-25T11:39:59.208Z,25.88
2022-08-25T11:40:58.905Z,26.33
2022-08-25T11:42:19.849Z,26.18
2022-08-25T11:43:44.389Z,26.39
2022-08-25T11:45:08.785Z,25.62
2022-08-25T11:46:17.596Z,25.67
2022-08-25T11:47:50.268Z,25.86
2022-08-25T11:49:21.692Z,26.20
2022-08-25T11:50:32.834Z,25.71
2022-08-25T11:51:42.214Z,25.08
2022-08-25T11:52:49.179Z,25.25
2022-08-25T11:53:48.468Z,25.52
2022-08-25T11:54:48.421Z,24.95
2022-08-25T11:55:49.896Z,24.94
2022-08-25T11:57:05.342Z,24.60
2022-08-25T11:58:39.103Z,24.76
2022-08-25T11:59:52.516Z,25.04
2022-08-25T12:00:50.440Z,25.04
2022-08-25T12:01:47.416Z,24.75
2022-08-25T12:02:47.436Z,24.76
2022-08-25T12:03:44.191Z,24.71
2022-08-25T12:04:44.164Z,25.26
2022-08-25T12:06:13.160Z,25.03
2022-08-25T12:07:10.666Z,25.17
2022-08-25T12:08:26.398Z,25.45
2022-08-25T12:09:23.228Z,26.32
2022-08-25T12:10:23.794Z,26.67
2022-08-25T12:11:41.782Z,27.20
2022-08-25T12:12:56.268Z,26.96
2022-08-25T12:13:53.291Z,26.04
2022-08-25T12:14:51.755Z,26.01
2022-08-25T12:15:48.412Z,26.69
2022-08-25T12:16:52.206Z,26.71
2022-08-25T12:18:12.759Z,26.35
2022-08-25T12:19:24.104Z,27.08
2022-08-25T12:20:58.471Z,27.43
2022-08-25T12:21:59.083Z,26.99
2022-08-25T12:22:57.616Z,26.63
2022-08-25T12:24:09.574Z,26.77
2022-08-25T12:25:24.483Z,26.55
2022-08-25T12:26:30.315Z,27.24
2022-08-25T12:27:52.880Z,26.30
2022-08-25T12:29:08.214Z,26.23
2022-08-25T12:30:45.777Z,26.28
2022-08-25T12:32:04.674Z,26.25
2022-08-25T12:33:03.215Z,26.61
2022-08-25T12:34:24.257Z,26.44
2022-08-25T12:35:50.075Z,27.47
2022-08-25T12:37:06.167Z,26.94
2022-08-25T12:38:08.997Z,26.89
2022-08-25T12:39:18.298Z,26.84
2022-08-25T12:40:26.784Z,26.77
2022-08-25T12:41:30.868Z,27.63
2022-08-25T12:42:46.100Z,27.08
2022-08-25T12:43:48.509Z,27.50
2022-08-25T12:44:48.010Z,27.96
2022-08-25T12:45:51.994Z,28.34
2022-08-25T12:47:27.248Z,28.46
2022-08-25T12:48:26.606Z,28.54
2022-08-25T12:49:32.351Z,27.44
2022-08-25T12:50:48.221Z,26.87
2022-08-25T12:51:59.232Z,26.37
2022-08-25T12:53:07.381Z,25.58
2022-08-25T12:54:48.475Z,25.77
2022-08-25T12:55:51.752Z,25.67
2022-08-25T12:56:55.298Z,25.15
2022-08-25T12:57:58.791Z,25.37
2022-08-25T12:59:12.843Z,25.57
2022-08-25T13:00:22.411Z,26.97
2022-08-25T13:01:35.222Z,26.27
2022-08-25T13:02:54.247Z,27.15
2022-08-25T13:04:15.104Z,26.52
2022-08-25T13:05:25.631Z,26.87
2022-08-25T13:06:29.647Z,26.81
2022-08-25T13:07:47.847Z,26.31
2022-08-25T13:09:18.356Z,26.69
2022-08-25T13:10:47.293Z,26.61
2022-08-25T13:11:54.954Z,26.05
2022-08-25T13:13:19.106Z,25.42
2022-08-25T13:14:22.762Z,25.99
2022-08-25T13:15:46.995Z,25.26
2022-08-25T13:16:57.546Z,24.73
2022-08-25T13:17:54.264Z,24.50
2022-08-25T13:18:51.674Z,24.63
2022-08-25T13:19:48.474Z,24.65
2022-08-25T13:20:47.215Z,24.74
2022-08-25T13:21:44.886Z,24.72
2022-08-25T13:22:45.080Z,24.52
2022-08-25T13:23:44.591Z,24.30
2022-08-25T13:24:43.775Z,24.68
2022-08-25T13:25:51.933Z,24.86
2022-08-25T13:26:52.693Z,24.57
2022-08-25T13:27:56.223Z,24.64
2022-08-25T13:29:17.834Z,24.64
2022-08-25T13:30:33.881Z,24.47
2022-08-25T13:31:31.102Z,24.58
2022-08-25T13:32:36.624Z,24.16
2022-08-25T13:33:34.635Z,24.04
2022-08-25T13:34:37.602Z,23.97
2022-08-25T13:35:39.306Z,23.90
2022-08-25T13:37:02.548Z,23.92
2022-08-25T13:38:19.604Z,23.98
2022-08-25T13:39:28.745Z,23.99
2022-08-25T13:40:36.626Z,23.89
2022-08-25T13:41:34.463Z,23.88
2022-08-25T13:42:31.870Z,23.85
2022-08-25T13:43:28.995Z,24.04
2022-08-25T13:44:28.240Z,23.96
2022-08-25T13:45:34.790Z,24.05
2022-08-25T13:46:38.412Z,24.29
2022-08-25T13:47:43.716Z,24.22
2022-08-25T13:48:49.471Z,24.10
2022-08-25T13:49:47.883Z,24.04
2022-08-25T13:50:50.155Z,24.28
2022-08-25T13:51:54.751Z,24.36
2022-08-25T13:52:55.783Z,24.40
2022-08-25T13:54:06.102Z,24.53
2022-08-25T13:55:04.767Z,23.95
2022-08-25T13:56:03.527Z,24.18
2022-08-25T13:57:07.600Z,23.89
2022-08-25T13:58:07.245Z,23.98
2022-08-25T13:59:29.795Z,23.99
2022-08-25T14:00:34.959Z,23.84
2022-08-25T14:01:49.231Z,23.84
2022-08-25T14:02:50.102Z,23.93
2022-08-25T14:03:47.768Z,23.96
2022-08-25T14:04:51.294Z,23.84
2022-08-25T14:06:24.568Z,23.75
2022-08-25T14:07:22.818Z,23.73
2022-08-25T14:08:33.108Z,23.65
2022-08-25T14:09:39.655Z,23.62
2022-08-25T14:10:45.036Z,23.86
2022-08-25T14:11:46.519Z,23.76
2022-08-25T14:12:47.688Z,23.79
2022-08-25T14:13:45.402Z,23.94
2022-08-25T14:14:42.170Z,23.95
2022-08-25T14:15:40.870Z,23.97
2022-08-25T14:16:54.221Z,24.38
2022-08-25T14:18:09.179Z,24.74
2022-08-25T14:19:06.162Z,24.68
2022-08-25T14:20:06.198Z,24.43
2022-08-25T14:21:10.746Z,24.51
2022-08-25T14:22:07.835Z,24.26
2022-08-25T14:23:18.751Z,23.98
2022-08-25T14:24:17.933Z,24.01
2022-08-25T14:25:19.425Z,24.20
2022-08-25T14:26:16.101Z,24.26
2022-08-25T14:27:13.131Z,23.98
2022-08-25T14:28:14.304Z,24.09
2022-08-25T14:29:11.582Z,23.86
2022-08-25T14:30:08.864Z,23.86
2022-08-25T14:31:13.739Z,23.81
2022-08-25T14:32:13.589Z,24.10
2022-08-25T14:33:11.827Z,24.08
2022-08-25T14:34:15.357Z,23.94
2022-08-25T14:35:12.203Z,24.04
2022-08-25T14:36:14.263Z,24.03
2022-08-25T14:37:20.198Z,23.90
2022-08-25T14:38:23.370Z,23.97
2022-08-25T14:39:20.268Z,24.08
2022-08-25T14:40:19.979Z,24.03
2022-08-25T14:41:16.962Z,24.09
2022-08-25T14:42:14.200Z,23.83
2022-08-25T14:43:11.009Z,23.76
2022-08-25T14:44:09.614Z,23.71
2022-08-25T14:45:06.967Z,23.74
2022-08-25T14:46:10.640Z,23.67
2022-08-25T14:47:12.339Z,23.60
2022-08-25T14:48:11.749Z,23.77
2022-08-25T14:49:12.317Z,23.95
2022-08-25T14:50:11.148Z,23.68
2022-08-25T14:51:08.374Z,23.55
2022-08-25T14:52:30.437Z,23.52
2022-08-25T14:53:28.687Z,23.79
2022-08-25T14:54:27.425Z,23.78
2022-08-25T14:55:32.247Z,23.66
2022-08-25T14:56:30.336Z,23.66
2022-08-25T14:57:28.501Z,23.74
2022-08-25T14:58:25.959Z,24.07
2022-08-25T14:59:23.480Z,24.44
2022-08-25T15:00:20.723Z,24.23
2022-08-25T15:01:28.353Z,24.58
2022-08-25T15:02:29.361Z,24.74
2022-08-25T15:03:37.721Z,24.77
2022-08-25T15:04:36.635Z,24.97
2022-08-25T15:05:34.599Z,24.41
2022-08-25T15:06:31.600Z,24.18
2022-08-25T15:07:49.728Z,24.37
2022-08-25T15:09:05.025Z,23.87
2022-08-25T15:10:02.315Z,24.19
2022-08-25T15:11:00.134Z,23.85
2022-08-25T15:11:58.145Z,23.89
2022-08-25T15:12:54.924Z,24.26
2022-08-25T15:13:51.750Z,24.24
2022-08-25T15:14:48.668Z,24.57
2022-08-25T15:15:58.126Z,24.99
2022-08-25T15:16:56.978Z,25.13
2022-08-25T15:17:55.326Z,24.90
2022-08-25T15:18:56.532Z,24.79
2022-08-25T15:19:53.648Z,25.13
2022-08-25T15:20:50.405Z,25.29
2022-08-25T15:21:48.154Z,24.58
2022-08-25T15:22:45.572Z,24.71
2022-08-25T15:23:44.510Z,24.70
2022-08-25T15:24:42.109Z,24.73
2022-08-25T15:25:41.743Z,24.73
2022-08-25T15:27:56.356Z,24.79
2022-08-25T15:28:53.257Z,24.57
2022-08-25T15:29:50.509Z,24.77
2022-08-25T15:30:47.217Z,24.54
2022-08-25T15:31:44.546Z,24.68
2022-08-25T15:32:41.972Z,24.65
2022-08-25T15:33:39.607Z,24.72
2022-08-25T15:34:37.495Z,25.28
2022-08-25T15:35:35.131Z,24.84
2022-08-25T15:36:33.335Z,25.00
2022-08-25T15:37:31.257Z,25.11
2022-08-25T15:38:28.005Z,26.16
2022-08-25T15:39:24.730Z,25.67
2022-08-25T15:40:21.974Z,25.63
2022-08-25T15:41:19.168Z,25.43
2022-08-25T15:42:16.729Z,25.85
2022-08-25T15:43:13.317Z,25.70
2022-08-25T15:44:11.539Z,25.23
2022-08-25T15:45:10.250Z,25.08
2022-08-25T15:46:07.390Z,24.53
2022-08-25T15:47:04.190Z,25.17
2022-08-25T15:48:01.504Z,25.39
2022-08-25T15:49:00.312Z,25.70
2022-08-25T15:50:08.111Z,26.03
2022-08-25T15:51:05.464Z,26.47
2022-08-25T15:52:02.479Z,26.00
2022-08-25T15:52:59.207Z,25.85
2022-08-25T15:53:56.423Z,25.93
2022-08-25T15:54:54.736Z,24.71
2022-08-25T15:55:52.398Z,25.07
2022-08-25T15:56:51.726Z,24.93
2022-08-25T15:57:49.609Z,25.35
2022-08-25T15:58:49.834Z,25.81
2022-08-25T15:59:46.714Z,25.46
2022-08-25T16:00:51.221Z,24.72
2022-08-25T16:01:53.648Z,25.04
2022-08-25T16:02:50.889Z,25.01
2022-08-25T16:03:48.312Z,24.85
2022-08-25T16:04:46.320Z,25.01
2022-08-25T16:05:48.134Z,24.77
2022-08-25T16:06:45.241Z,24.41
2022-08-25T16:07:42.134Z,24.25
2022-08-25T16:08:39.291Z,24.75
2022-08-25T16:09:39.263Z,24.40
2022-08-25T16:10:37.524Z,24.41
2022-08-25T16:11:35.495Z,24.67
2022-08-25T16:12:35.570Z,24.41
2022-08-25T16:13:33.086Z,24.43
2022-08-25T16:14:29.791Z,23.76
2022-08-25T16:15:28.773Z,23.79
2022-08-25T16:16:29.336Z,23.60
2022-08-25T16:17:26.071Z,24.06
2022-08-25T16:18:23.991Z,23.84
2022-08-25T16:19:20.610Z,23.76
2022-08-25T16:20:19.613Z,23.99
2022-08-25T16:21:22.981Z,23.32
2022-08-25T16:22:22.346Z,23.20
2022-08-25T16:23:19.857Z,23.66
2022-08-25T16:24:16.532Z,23.41
2022-08-25T16:25:14.588Z,23.28
2022-08-25T16:26:12.962Z,23.29
2022-08-25T16:27:12.106Z,23.13
2022-08-25T16:28:11.209Z,23.11
2022-08-25T16:29:09.339Z,22.99
2022-08-25T16:30:14.973Z,22.95
2022-08-25T16:31:16.738Z,22.98
2022-08-25T16:32:14.684Z,22.96
2022-08-25T16:33:13.298Z,23.03
2022-08-25T16:34:13.779Z,23.30
2022-08-25T16:35:11.344Z,23.14
2022-08-25T16:36:20.699Z,23.09
2022-08-25T16:37:18.344Z,23.05
2022-08-25T16:38:14.989Z,22.88
2022-08-25T16:39:12.534Z,22.76
2022-08-25T16:40:13.568Z,22.75
2022-08-25T16:41:18.267Z,22.70
2022-08-25T16:42:15.321Z,22.84
2022-08-25T16:43:12.488Z,22.86
2022-08-25T16:44:11.159Z,22.91
2022-08-25T16:45:08.275Z,22.81
2022-08-25T16:46:08.345Z,22.83
2022-08-25T16:47:05.089Z,22.80
2022-08-25T16:48:06.235Z,22.88
2022-08-25T16:49:05.957Z,22.83
2022-08-25T16:50:03.593Z,22.64
2022-08-25T16:51:00.743Z,22.82
2022-08-25T16:51:58.021Z,23.03
2022-08-25T16:53:13.419Z,22.96
2022-08-25T16:54:29.627Z,22.84
2022-08-25T16:55:28.572Z,22.66
2022-08-25T16:56:37.662Z,22.57
2022-08-25T16:57:34.345Z,22.38
2022-08-25T16:58:33.169Z,22.56
2022-08-25T16:59:29.922Z,22.72
2022-08-25T17:00:30.997Z,22.62
2022-08-25T17:01:30.180Z,22.50
2022-08-25T17:02:26.933Z,22.18
2022-08-25T17:03:23.591Z,21.80
2022-08-25T17:04:21.394Z,21.91
2022-08-25T17:05:29.855Z,21.84
2022-08-25T17:06:28.666Z,21.71
2022-08-25T17:07:25.313Z,21.90
2022-08-25T17:08:31.048Z,22.27
2022-08-25T17:09:27.853Z,21.87
2022-08-25T17:10:26.063Z,21.60
2022-08-25T17:11:30.205Z,21.87
2022-08-25T17:12:28.048Z,21.85
2022-08-25T17:13:24.791Z,21.46
2022-08-25T17:14:22.353Z,21.56
2022-08-25T17:15:23.811Z,21.46
2022-08-25T17:16:22.743Z,21.31
2022-08-25T17:17:19.945Z,21.24
2022-08-25T17:18:16.586Z,21.15
2022-08-25T17:19:15.049Z,21.01
2022-08-25T17:20:11.760Z,21.04
2022-08-25T17:21:19.489Z,20.79
2022-08-25T17:22:22.650Z,21.03
2022-08-25T17:23:21.123Z,21.83
2022-08-25T17:24:18.252Z,21.23
2022-08-25T17:25:14.977Z,21.08
2022-08-25T17:26:14.822Z,21.01
2022-08-25T17:27:12.989Z,21.00
2022-08-25T17:28:12.076Z,20.92
2022-08-25T17:29:09.581Z,20.95
2022-08-25T17:30:06.970Z,21.00
2022-08-25T17:31:03.960Z,20.84
2022-08-25T17:32:04.931Z,20.68
2022-08-25T17:33:03.149Z,20.62
2022-08-25T17:33:59.817Z,20.72
2022-08-25T17:34:56.475Z,20.94
2022-08-25T17:35:55.820Z,20.92
2022-08-25T17:36:54.530Z,20.79
2022-08-25T17:37:51.307Z,20.71
2022-08-25T17:38:50.222Z,20.81
2022-08-25T17:39:46.933Z,20.72
2022-08-25T17:40:48.194Z,20.47
2022-08-25T17:41:45.775Z,20.35
2022-08-25T17:42:42.406Z,20.37
2022-08-25T17:43:43.415Z,20.27
2022-08-25T17:44:40.527Z,20.23
2022-08-25T17:45:39.100Z,20.18
2022-08-25T17:46:35.864Z,20.24
2022-08-25T17:47:33.274Z,20.09
2022-08-25T17:48:30.737Z,19.98
2022-08-25T17:49:29.809Z,19.94
2022-08-25T17:50:27.344Z,20.07
2022-08-25T17:51:24.922Z,20.31
2022-08-25T17:52:25.647Z,20.37
2022-08-25T17:53:23.175Z,20.52
2022-08-25T17:54:22.586Z,20.95
2022-08-25T17:55:24.346Z,20.75
2022-08-25T17:56:23.131Z,20.68
2022-08-25T17:57:19.953Z,20.64
2022-08-25T17:58:18.486Z,20.54
2022-08-25T17:59:16.502Z,20.70
2022-08-25T18:00:15.720Z,20.72
2022-08-25T18:01:22.652Z,20.83
2022-08-25T18:02:19.448Z,20.94
2022-08-25T18:03:16.206Z,20.99
2022-08-25T18:04:17.597Z,21.16
2022-08-25T18:05:17.274Z,21.03
2022-08-25T18:06:15.205Z,20.78
2022-08-25T18:07:14.145Z,20.91
2022-08-25T18:08:12.318Z,21.02
2022-08-25T18:09:10.983Z,20.92
2022-08-25T18:10:13.818Z,21.02
2022-08-25T18:11:12.011Z,20.95
2022-08-25T18:12:11.332Z,20.95
2022-08-25T18:13:08.812Z,20.77
2022-08-25T18:14:05.732Z,20.84
2022-08-25T18:15:03.028Z,20.98
2022-08-25T18:16:00.142Z,21.07
2022-08-25T18:16:57.614Z,21.03
2022-08-25T18:17:57.053Z,21.11
2022-08-25T18:18:55.297Z,20.91
2022-08-25T18:19:54.140Z,20.99
2022-08-25T18:20:51.090Z,20.99
2022-08-25T18:21:49.368Z,20.97
2022-08-25T18:22:48.653Z,21.00
2022-08-25T18:23:45.748Z,20.94
2022-08-25T18:24:44.453Z,20.89
2022-08-25T18:25:42.020Z,20.98
2022-08-25T18:26:39.955Z,20.96
2022-08-25T18:27:37.012Z,20.89
2022-08-25T18:28:34.807Z,20.87
2022-08-25T18:29:32.036Z,20.94
2022-08-25T18:30:28.684Z,20.95
2022-08-25T18:31:25.842Z,20.98
2022-08-25T18:32:22.671Z,21.07
2022-08-25T18:33:22.898Z,21.01
2022-08-25T18:34:19.629Z,20.98
2022-08-25T18:35:16.913Z,20.91
2022-08-25T18:36:20.486Z,20.96
2022-08-25T18:37:36.605Z,21.05
2022-08-25T18:38:51.526Z,21.02
2022-08-25T18:40:13.713Z,20.84
2022-08-25T18:41:11.664Z,20.91
2022-08-25T18:42:08.740Z,20.96
2022-08-25T18:43:08.398Z,20.87
2022-08-25T18:44:06.565Z,20.80
2022-08-25T18:45:06.587Z,20.71
2022-08-25T18:46:06.934Z,20.88
2022-08-25T18:47:07.865Z,20.77
2022-08-25T18:48:05.152Z,20.77
2022-08-25T18:49:03.682Z,20.67
2022-08-25T18:50:04.501Z,20.68
2022-08-25T18:51:02.514Z,20.53
2022-08-25T18:51:59.158Z,20.71
2022-08-25T18:52:57.323Z,20.66
2022-08-25T18:53:59.111Z,20.57
2022-08-25T18:54:58.322Z,20.47
2022-08-25T18:55:55.279Z,20.57
2022-08-25T18:56:53.297Z,20.64
2022-08-25T18:57:51.462Z,20.33
2022-08-25T18:58:49.889Z,20.47
2022-08-25T18:59:48.365Z,20.34
2022-08-25T19:00:45.815Z,20.26
2022-08-25T19:01:44.649Z,20.40
2022-08-25T19:03:00.073Z,20.60
2022-08-25T19:03:58.293Z,20.48
2022-08-25T19:04:56.433Z,20.29
2022-08-25T19:05:57.454Z,20.23
2022-08-25T19:06:54.520Z,20.48
2022-08-25T19:07:52.461Z,20.49
2022-08-25T19:08:49.159Z,20.55
2022-08-25T19:09:45.992Z,20.56
2022-08-25T19:10:45.835Z,20.23
2022-08-25T19:11:43.232Z,20.25
2022-08-25T19:12:41.598Z,20.12
2022-08-25T19:13:41.123Z,20.02
2022-08-25T19:14:38.519Z,20.08
2022-08-25T19:15:37.811Z,19.77
2022-08-25T19:16:38.381Z,20.01
2022-08-25T19:17:37.355Z,20.17
2022-08-25T19:18:34.620Z,20.16
2022-08-25T19:19:32.047Z,19.77
2022-08-25T19:20:31.481Z,19.94
2022-08-25T19:21:28.454Z,19.84
2022-08-25T19:22:40.696Z,19.54
2022-08-25T19:23:39.016Z,19.49
2022-08-25T19:24:36.362Z,19.32
2022-08-25T19:25:34.716Z,19.45
2022-08-25T19:26:34.425Z,19.68
2022-08-25T19:27:32.200Z,19.74
2022-08-25T19:28:29.581Z,19.95
2022-08-25T19:29:26.612Z,20.06
2022-08-25T19:30:29.557Z,19.87
2022-08-25T19:31:28.148Z,19.75
2022-08-25T19:32:30.409Z,19.89
2022-08-25T19:33:42.812Z,20.36
2022-08-25T19:34:44.099Z,20.50
2022-08-25T19:35:45.356Z,20.43
2022-08-25T19:36:43.030Z,20.31
2022-08-25T19:37:39.991Z,20.39
2022-08-25T19:38:37.300Z,20.39
2022-08-25T19:39:35.740Z,20.43
2022-08-25T19:40:37.843Z,20.18
2022-08-25T19:41:35.587Z,20.28
2022-08-25T19:42:38.142Z,20.31
2022-08-25T19:43:35.176Z,20.31
2022-08-25T19:44:32.516Z,20.17
2022-08-25T19:45:32.213Z,20.07
2022-08-25T19:46:35.770Z,20.21
2022-08-25T19:47:32.781Z,20.19
2022-08-25T19:48:29.503Z,20.27
2022-08-25T19:49:31.633Z,20.20
2022-08-25T19:50:30.053Z,20.33
2022-08-25T19:51:26.884Z,20.25
2022-08-25T19:52:24.989Z,20.01
2022-08-25T19:53:23.578Z,20.02
2022-08-25T19:54:25.223Z,20.27
2022-08-25T19:55:22.143Z,20.44
2022-08-25T19:56:19.415Z,20.19
2022-08-25T19:57:28.479Z,20.36
2022-08-25T19:58:32.965Z,19.86
2022-08-25T19:59:34.433Z,19.56
2022-08-25T20:00:40.339Z,19.76
2022-08-25T20:01:37.240Z,19.85
2022-08-25T20:02:37.213Z,19.33
2022-08-25T20:03:35.158Z,19.40
2022-08-25T20:04:32.770Z,19.17
2022-08-25T20:05:30.111Z,19.20
2022-08-25T20:06:27.718Z,19.04
2022-08-25T20:07:27.988Z,19.03
2022-08-25T20:08:29.743Z,18.95
2022-08-25T20:09:38.951Z,18.97
2022-08-25T20:10:41.930Z,19.03
2022-08-25T20:11:40.484Z,18.87
2022-08-25T20:12:37.572Z,18.91
2022-08-25T20:13:35.088Z,18.79
2022-08-25T20:14:34.024Z,18.71
2022-08-25T20:15:34.333Z,19.08
2022-08-25T20:16:33.910Z,19.15
2022-08-25T20:17:31.316Z,18.72
2022-08-25T20:18:28.410Z,18.61
2022-08-25T20:19:25.338Z,18.75
2022-08-25T20:20:22.479Z,18.68
2022-08-25T20:21:19.187Z,18.17
2022-08-25T20:22:17.431Z,18.19
2022-08-25T20:23:33.221Z,18.35
2022-08-25T20:24:49.462Z,18.22
2022-08-25T20:25:47.918Z,18.20
2022-08-25T20:26:47.148Z,18.09
2022-08-25T20:27:49.947Z,18.28
2022-08-25T20:28:46.639Z,18.36
2022-08-25T20:29:44.527Z,18.36
2022-08-25T20:30:44.152Z,18.14
2022-08-25T20:31:41.472Z,18.27
2022-08-25T20:32:40.811Z,18.29
2022-08-25T20:33:37.802Z,18.60
2022-08-25T20:34:36.964Z,18.42
2022-08-25T20:35:33.940Z,18.32
2022-08-25T20:36:31.474Z,18.31
2022-08-25T20:37:28.557Z,18.36
2022-08-25T20:38:27.032Z,18.49
2022-08-25T20:39:25.323Z,18.26
2022-08-25T20:40:25.854Z,18.38
2022-08-25T20:41:22.896Z,18.35
2022-08-25T20:42:19.927Z,18.48
2022-08-25T20:43:17.228Z,18.48
2022-08-25T20:44:14.067Z,18.45
2022-08-25T20:45:12.841Z,18.41
2022-08-25T20:46:09.808Z,18.61
2022-08-25T20:47:10.352Z,18.46
2022-08-25T20:48:07.520Z,18.39
2022-08-25T20:49:04.508Z,18.23
2022-08-25T20:50:06.423Z,18.32
2022-08-25T20:51:08.947Z,18.49
2022-08-25T20:52:06.773Z,18.74
2022-08-25T20:53:03.452Z,18.40
2022-08-25T20:54:00.261Z,18.46
2022-08-25T20:54:57.001Z,18.36
2022-08-25T20:55:53.747Z,18.48
2022-08-25T20:56:50.472Z,18.99
2022-08-25T20:57:47.791Z,18.44
2022-08-25T20:58:45.178Z,18.73
2022-08-25T20:59:41.762Z,18.65
2022-08-25T21:00:41.100Z,18.57
2022-08-25T21:01:37.991Z,18.44
2022-08-25T21:02:36.956Z,19.00
2022-08-25T21:03:33.592Z,18.56
2022-08-25T21:04:30.780Z,18.53
2022-08-25T21:05:27.788Z,18.56
2022-08-25T21:06:24.471Z,18.74
2022-08-25T21:07:23.893Z,18.63
2022-08-25T21:08:20.991Z,18.68
2022-08-25T21:09:23.035Z,19.01
2022-08-25T21:10:20.047Z,19.15
2022-08-25T21:11:18.157Z,19.22
2022-08-25T21:12:15.479Z,19.32
2022-08-25T21:13:12.448Z,19.27
2022-08-25T21:14:09.166Z,19.47
2022-08-25T21:15:07.406Z,19.54
2022-08-25T21:16:06.350Z,19.37